Time;durP1;ratioP1;P1;durP2;ratioP2;P2;SDS_P1;SDS_P2;PMS_P1;PMS_P2;Temp;Humidity;BMP_temperature;BMP_pressure;BME280_temperature;BME280_humidity;BME280_pressure;Samples;Min_cycle;Max_cycle;Signal;HPM_P1;HPM_P2
2023/04/29 00:00:50;;;;;;;26.75;18.00;;;9.50;99.90;;;;;;5068393;28;20216;-93
2023/04/29 00:03:17;;;;;;;23.55;17.45;;;9.90;99.90;;;;;;5081942;28;20298;-93
2023/04/29 00:05:44;;;;;;;23.90;17.58;;;9.50;99.90;;;;;;5094617;28;20188;-92
2023/04/29 00:08:12;;;;;;;23.30;17.15;;;9.40;99.90;;;;;;5078578;28;20205;-93
2023/04/29 00:10:39;;;;;;;27.48;17.88;;;9.40;99.90;;;;;;5070368;28;20202;-93
2023/04/29 00:13:07;;;;;;;25.85;16.25;;;9.40;99.90;;;;;;5074730;28;20226;-93
2023/04/29 00:15:36;;;;;;;26.45;17.35;;;9.40;99.90;;;;;;5072474;28;20199;-93
2023/04/29 00:18:03;;;;;;;26.58;17.08;;;10.30;99.90;;;;;;5077859;28;20204;-92
2023/04/29 00:20:30;;;;;;;26.58;16.55;;;9.30;99.90;;;;;;5088559;28;20224;-92
2023/04/29 00:22:57;;;;;;;20.80;16.45;;;9.30;99.90;;;;;;5076186;28;20238;-93
2023/04/29 00:25:24;;;;;;;22.73;16.50;;;9.20;99.90;;;;;;5074240;28;20199;-93
2023/04/29 00:27:51;;;;;;;25.07;15.67;;;9.20;99.90;;;;;;5051196;28;20230;-92
2023/04/29 00:30:19;;;;;;;21.23;14.87;;;9.10;99.90;;;;;;5079257;28;20210;-92
2023/04/29 00:32:46;;;;;;;25.13;16.10;;;9.10;99.90;;;;;;5089451;28;20206;-92
2023/04/29 00:35:14;;;;;;;19.93;14.30;;;9.00;99.90;;;;;;5065820;28;20534;-92
2023/04/29 00:37:41;;;;;;;19.65;13.68;;;9.00;99.90;;;;;;5093076;28;20579;-93
2023/04/29 00:40:09;;;;;;;19.53;13.93;;;9.00;99.90;;;;;;5084153;28;20227;-93
2023/04/29 00:42:37;;;;;;;22.10;14.20;;;9.00;99.90;;;;;;5059244;28;20211;-93
2023/04/29 00:45:04;;;;;;;17.73;13.23;;;8.90;99.90;;;;;;5053868;28;20203;-92
2023/04/29 00:47:33;;;;;;;20.73;14.18;;;8.90;99.90;;;;;;5089199;28;20623;-93
2023/04/29 00:50:00;;;;;;;20.70;13.53;;;8.90;99.90;;;;;;5093009;28;20211;-92
2023/04/29 00:52:30;;;;;;;24.00;15.30;;;8.90;99.90;;;;;;5098215;28;20191;-93
2023/04/29 00:54:57;;;;;;;25.20;13.97;;;8.80;99.90;;;;;;5099492;28;20250;-92
2023/04/29 00:57:24;;;;;;;23.17;15.00;;;8.80;99.90;;;;;;5072227;28;20204;-93
2023/04/29 00:59:51;;;;;;;20.87;14.37;;;8.80;99.90;;;;;;5076764;28;20196;-93
2023/04/29 01:02:18;;;;;;;22.38;13.88;;;8.80;99.90;;;;;;5083502;28;20321;-93
2023/04/29 01:04:47;;;;;;;26.47;13.63;;;8.90;99.90;;;;;;5096254;28;20196;-91
2023/04/29 01:07:17;;;;;;;20.10;14.20;;;8.80;99.90;;;;;;5095639;28;20684;-93
2023/04/29 01:10:00;;;;;;;17.20;12.87;;;8.80;99.90;;;;;;5078710;28;20204;-92
2023/04/29 01:12:35;;;;;;;23.57;13.70;;;8.70;99.90;;;;;;5096911;28;20222;-92
2023/04/29 01:15:06;;;;;;;23.53;13.90;;;8.70;99.90;;;;;;5050947;28;20207;-93
2023/04/29 01:17:40;;;;;;;20.05;13.02;;;8.70;99.90;;;;;;5092948;28;20203;-93
2023/04/29 01:20:10;;;;;;;21.03;13.30;;;9.40;99.90;;;;;;5081688;28;20196;-92
2023/04/29 01:22:38;;;;;;;20.10;13.23;;;8.70;99.90;;;;;;5088621;28;21248;-93
2023/04/29 01:25:08;;;;;;;25.17;13.90;;;8.70;99.90;;;;;;5093565;28;20290;-93
2023/04/29 01:27:42;;;;;;;21.67;14.37;;;8.70;99.90;;;;;;5064474;28;20853;-93
2023/04/29 01:30:18;;;;;;;20.63;14.50;;;8.70;99.90;;;;;;5055439;28;20207;-92
2023/04/29 01:32:53;;;;;;;24.20;15.00;;;8.70;99.90;;;;;;5075114;28;20547;-93
2023/04/29 01:35:39;;;;;;;21.07;14.70;;;8.70;99.90;;;;;;5072510;28;20199;-93
2023/04/29 01:38:17;;;;;;;20.43;14.47;;;8.70;99.90;;;;;;5090806;28;20530;-91
2023/04/29 01:40:55;;;;;;;25.97;15.00;;;8.70;99.90;;;;;;5073899;28;20215;-92
2023/04/29 01:43:24;;;;;;;25.43;15.43;;;8.70;99.90;;;;;;5079457;28;20290;-92
2023/04/29 01:45:55;;;;;;;20.53;14.23;;;8.70;99.90;;;;;;5075230;28;20200;-93
2023/04/29 01:48:22;;;;;;;24.53;13.97;;;8.70;99.90;;;;;;5079311;28;20668;-91
2023/04/29 01:50:49;;;;;;;26.47;15.27;;;8.70;99.90;;;;;;5082048;28;20208;-92
2023/04/29 01:53:16;;;;;;;22.47;13.43;;;8.70;99.90;;;;;;5075519;28;20195;-93
2023/04/29 01:55:43;;;;;;;21.93;13.90;;;8.70;99.90;;;;;;5071470;28;20196;-92
2023/04/29 01:58:11;;;;;;;25.83;15.33;;;8.70;99.90;;;;;;5083163;28;20233;-93
2023/04/29 02:00:38;;;;;;;22.17;15.73;;;8.70;99.90;;;;;;5055028;28;20200;-92
2023/04/29 02:03:05;;;;;;;21.13;14.30;;;8.70;99.90;;;;;;5084783;28;20569;-93
2023/04/29 02:05:33;;;;;;;28.17;13.97;;;9.00;99.90;;;;;;5086007;28;20227;-93
2023/04/29 02:08:00;;;;;;;23.27;15.23;;;8.70;99.90;;;;;;5074243;28;20199;-94
2023/04/29 02:10:28;;;;;;;25.73;15.00;;;8.80;99.90;;;;;;5080178;28;20914;-92
2023/04/29 02:12:54;;;;;;;25.80;14.40;;;10.40;99.90;;;;;;5067015;28;20204;-92
2023/04/29 02:15:23;;;;;;;21.87;15.13;;;8.80;99.90;;;;;;5075387;28;20226;-92
2023/04/29 02:17:50;;;;;;;22.80;14.87;;;8.80;99.90;;;;;;5071968;28;20203;-92
2023/04/29 02:20:17;;;;;;;22.93;15.30;;;8.80;99.90;;;;;;5075969;28;20207;-92
2023/04/29 02:22:44;;;;;;;23.40;15.23;;;8.80;99.90;;;;;;5063787;28;20228;-92
2023/04/29 02:25:13;;;;;;;25.27;16.03;;;8.80;99.90;;;;;;5106971;28;20290;-93
2023/04/29 02:27:40;;;;;;;23.50;15.30;;;8.80;99.90;;;;;;5056841;28;20204;-93
2023/04/29 02:30:08;;;;;;;26.40;15.53;;;8.80;99.90;;;;;;5084184;28;20612;-92
2023/04/29 02:32:38;;;;;;;21.87;14.73;;;8.80;99.90;;;;;;5080071;28;20211;-93
2023/04/29 02:35:06;;;;;;;17.17;13.77;;;8.70;99.90;;;;;;5087337;28;20729;-93
2023/04/29 02:37:33;;;;;;;20.30;14.67;;;8.80;99.90;;;;;;5061762;28;20199;-93
2023/04/29 02:39:59;;;;;;;21.97;14.57;;;8.70;99.90;;;;;;5092450;28;20212;-93
2023/04/29 02:42:26;;;;;;;25.13;15.60;;;8.80;99.90;;;;;;5087660;28;20223;-93
2023/04/29 02:44:53;;;;;;;20.90;14.80;;;9.70;99.90;;;;;;5093519;28;20207;-92
2023/04/29 02:47:21;;;;;;;23.17;15.57;;;8.80;99.90;;;;;;5050106;28;20217;-92
2023/04/29 02:49:49;;;;;;;22.40;15.17;;;8.80;99.90;;;;;;5084239;28;20319;-93
2023/04/29 02:52:17;;;;;;;21.17;14.60;;;8.80;99.90;;;;;;5062697;28;20572;-93
2023/04/29 02:54:45;;;;;;;21.87;14.83;;;8.80;99.90;;;;;;5069277;28;20214;-92
2023/04/29 02:57:12;;;;;;;22.97;13.73;;;8.90;99.90;;;;;;5085550;28;20202;-93
2023/04/29 02:59:39;;;;;;;20.33;13.93;;;8.90;99.90;;;;;;5083872;28;20652;-91
2023/04/29 03:02:06;;;;;;;33.43;15.90;;;8.80;99.90;;;;;;5072963;28;20231;-92
2023/04/29 03:04:33;;;;;;;23.17;15.27;;;8.80;99.90;;;;;;5050726;28;20314;-92
2023/04/29 03:07:01;;;;;;;20.73;15.40;;;8.80;99.90;;;;;;5086358;28;20290;-92
2023/04/29 03:09:28;;;;;;;25.27;15.17;;;8.80;99.90;;;;;;5082670;28;20226;-92
2023/04/29 03:11:55;;;;;;;24.73;14.57;;;8.80;99.90;;;;;;5093146;28;20188;-93
2023/04/29 03:14:22;;;;;;;21.27;14.67;;;8.80;99.90;;;;;;5064946;28;20203;-93
2023/04/29 03:16:49;;;;;;;20.93;14.53;;;8.80;99.90;;;;;;5074477;28;20194;-93
2023/04/29 03:19:17;;;;;;;23.67;15.10;;;8.80;99.90;;;;;;5067151;28;20210;-93
2023/04/29 03:21:44;;;;;;;22.30;14.10;;;8.70;99.90;;;;;;5065353;28;20242;-93
2023/04/29 03:24:13;;;;;;;24.80;14.77;;;8.70;99.90;;;;;;5093987;28;20198;-92
2023/04/29 03:26:41;;;;;;;21.10;14.53;;;8.70;99.90;;;;;;5089854;28;20230;-93
2023/04/29 03:29:08;;;;;;;21.90;14.50;;;8.70;99.90;;;;;;5091136;28;20219;-92
2023/04/29 03:31:36;;;;;;;23.77;16.20;;;8.70;99.90;;;;;;5068749;28;20223;-92
2023/04/29 03:34:03;;;;;;;23.83;16.23;;;8.70;99.90;;;;;;5073262;28;20211;-92
2023/04/29 03:36:30;;;;;;;24.30;16.07;;;8.70;99.90;;;;;;5069972;28;20199;-93
2023/04/29 03:38:57;;;;;;;22.47;15.37;;;8.60;99.90;;;;;;5095916;28;20191;-92
2023/04/29 03:41:25;;;;;;;25.17;16.20;;;8.60;99.90;;;;;;5068639;28;20234;-92
2023/04/29 03:43:53;;;;;;;26.63;15.97;;;8.60;99.90;;;;;;5089772;28;20294;-93
2023/04/29 03:46:20;;;;;;;28.10;16.10;;;8.60;99.90;;;;;;5060645;28;20604;-92
2023/04/29 03:48:47;;;;;;;25.37;16.40;;;8.60;99.90;;;;;;5089372;28;20207;-93
2023/04/29 03:51:14;;;;;;;21.57;16.20;;;8.60;99.90;;;;;;5068204;28;20211;-92
2023/04/29 03:53:41;;;;;;;23.60;16.40;;;8.50;99.90;;;;;;5070925;28;20203;-92
2023/04/29 03:56:08;;;;;;;25.85;16.85;;;8.50;99.90;;;;;;5101285;28;20186;-92
2023/04/29 03:58:36;;;;;;;28.00;16.03;;;8.60;99.90;;;;;;5109196;28;20421;-93
2023/04/29 04:01:06;;;;;;;25.30;16.97;;;8.60;99.90;;;;;;5082865;28;20195;-92
2023/04/29 04:03:33;;;;;;;25.10;16.50;;;8.50;99.90;;;;;;5104445;28;20432;-92
2023/04/29 04:06:00;;;;;;;24.90;16.63;;;8.60;99.90;;;;;;5074651;28;20203;-92
2023/04/29 04:08:27;;;;;;;26.40;16.63;;;8.50;99.90;;;;;;5097960;28;20210;-92
2023/04/29 04:10:54;;;;;;;25.30;16.87;;;9.30;99.90;;;;;;5118774;28;20198;-92
2023/04/29 04:13:20;;;;;;;25.33;16.07;;;8.60;99.90;;;;;;5115628;28;20251;-92
2023/04/29 04:15:51;;;;;;;28.37;16.97;;;8.60;99.90;;;;;;5116759;27;20183;-93
2023/04/29 04:18:18;;;;;;;21.90;15.60;;;8.60;99.90;;;;;;5105078;28;20198;-92
2023/04/29 04:20:46;;;;;;;26.50;17.37;;;8.60;99.90;;;;;;5094468;28;20200;-93
2023/04/29 04:23:13;;;;;;;25.47;17.07;;;8.60;99.90;;;;;;5066750;28;20231;-93
2023/04/29 04:25:45;;;;;;;23.20;15.77;;;8.60;99.90;;;;;;5075548;28;20196;-92
2023/04/29 04:28:12;;;;;;;27.97;16.10;;;8.50;99.90;;;;;;5093942;28;20187;-93
2023/04/29 04:30:39;;;;;;;24.97;14.97;;;8.60;99.90;;;;;;5113835;28;20606;-92
2023/04/29 04:33:08;;;;;;;24.63;15.47;;;8.60;99.90;;;;;;5106497;28;20260;-93
2023/04/29 04:35:34;;;;;;;26.13;15.70;;;8.60;99.90;;;;;;5101096;27;20191;-93
2023/04/29 04:38:01;;;;;;;23.00;14.90;;;8.50;99.90;;;;;;5095376;28;20218;-91
2023/04/29 04:40:28;;;;;;;27.27;16.10;;;8.60;99.90;;;;;;5110515;28;20211;-91
2023/04/29 04:42:55;;;;;;;25.70;15.27;;;8.50;99.90;;;;;;5119550;28;20330;-90
2023/04/29 04:45:22;;;;;;;20.97;14.50;;;8.60;99.90;;;;;;5106228;28;20191;-93
2023/04/29 04:47:49;;;;;;;24.43;13.80;;;8.60;99.90;;;;;;5113607;28;20180;-92
2023/04/29 04:50:17;;;;;;;20.63;14.67;;;8.50;99.90;;;;;;5107010;27;20215;-92
2023/04/29 04:52:44;;;;;;;24.90;15.13;;;8.60;99.90;;;;;;5094739;28;20195;-92
2023/04/29 04:55:12;;;;;;;21.77;14.07;;;8.60;99.90;;;;;;5097129;28;20218;-93
2023/04/29 04:57:38;;;;;;;22.00;14.70;;;8.60;99.90;;;;;;5115815;28;20281;-92
2023/04/29 05:00:07;;;;;;;24.67;15.33;;;8.60;99.90;;;;;;5112434;27;20244;-92
2023/04/29 05:02:34;;;;;;;27.10;15.10;;;8.60;99.90;;;;;;5081027;28;20211;-94
2023/04/29 05:05:01;;;;;;;21.60;14.17;;;8.60;99.90;;;;;;5075794;28;20298;-93
2023/04/29 05:07:30;;;;;;;25.17;14.37;;;8.60;99.90;;;;;;5087013;28;20264;-92
2023/04/29 05:09:58;;;;;;;21.80;13.67;;;8.70;99.90;;;;;;5093723;28;20216;-92
2023/04/29 05:12:29;;;;;;;23.17;14.27;;;8.60;99.90;;;;;;5113511;27;20202;-92
2023/04/29 05:14:56;;;;;;;26.60;14.53;;;9.00;99.90;;;;;;5112177;27;20236;-92
2023/04/29 05:17:23;;;;;;;23.27;14.77;;;8.60;99.90;;;;;;5115202;27;20192;-93
2023/04/29 05:19:51;;;;;;;22.77;12.67;;;8.60;99.90;;;;;;5107491;28;20543;-93
2023/04/29 05:22:17;;;;;;;23.83;12.83;;;8.70;99.90;;;;;;5111490;28;20218;-90
2023/04/29 05:24:47;;;;;;;25.53;13.80;;;8.70;99.90;;;;;;5092410;28;20200;-93
2023/04/29 05:27:14;;;;;;;18.80;13.10;;;8.70;99.90;;;;;;5104057;28;20220;-93
2023/04/29 05:29:41;;;;;;;21.80;13.87;;;8.90;99.90;;;;;;5085652;28;20196;-92
2023/04/29 05:32:07;;;;;;;26.90;14.00;;;8.70;99.90;;;;;;5091569;27;20298;-93
2023/04/29 05:34:35;;;;;;;23.77;13.67;;;8.70;99.90;;;;;;5083643;27;20672;-93
2023/04/29 05:37:02;;;;;;;22.07;13.07;;;8.80;99.90;;;;;;5091777;28;20315;-93
2023/04/29 05:39:29;;;;;;;25.73;13.53;;;8.80;99.90;;;;;;5096817;28;20222;-93
2023/04/29 05:41:57;;;;;;;24.03;13.50;;;8.90;99.90;;;;;;5106137;28;20194;-89
2023/04/29 05:44:25;;;;;;;23.73;12.27;;;8.90;99.90;;;;;;5117040;28;20187;-93
2023/04/29 05:46:52;;;;;;;25.23;13.13;;;8.90;99.90;;;;;;5108236;28;20248;-92
2023/04/29 05:49:18;;;;;;;20.63;12.90;;;8.80;99.90;;;;;;5095832;28;20200;-93
2023/04/29 05:51:46;;;;;;;19.93;12.27;;;8.90;99.90;;;;;;5062130;28;20192;-93
2023/04/29 05:54:13;;;;;;;19.77;12.37;;;8.90;99.90;;;;;;5062492;28;20577;-91
2023/04/29 05:56:40;;;;;;;27.70;14.37;;;8.80;99.90;;;;;;5081012;28;20202;-92
2023/04/29 05:59:08;;;;;;;24.90;13.60;;;8.90;99.90;;;;;;5072333;28;20196;-91
2023/04/29 06:01:36;;;;;;;27.77;13.23;;;8.90;99.90;;;;;;5089931;28;20686;-93
2023/04/29 06:04:03;;;;;;;29.63;13.67;;;8.90;99.90;;;;;;5088380;28;20268;-93
2023/04/29 06:06:30;;;;;;;20.77;12.17;;;8.90;99.90;;;;;;5082204;28;20665;-92
2023/04/29 06:08:57;;;;;;;24.33;12.17;;;9.00;99.90;;;;;;5074490;28;20200;-91
2023/04/29 06:11:24;;;;;;;20.67;12.17;;;9.00;99.90;;;;;;5084988;28;20212;-92
2023/04/29 06:13:51;;;;;;;21.70;12.63;;;8.90;99.90;;;;;;5074029;28;20231;-91
2023/04/29 06:16:20;;;;;;;18.20;11.60;;;9.60;99.90;;;;;;5090331;28;20223;-90
2023/04/29 06:18:47;;;;;;;18.50;11.57;;;9.00;99.90;;;;;;5092897;28;20310;-91
2023/04/29 06:21:14;;;;;;;21.63;12.40;;;9.00;99.90;;;;;;5061176;28;20206;-91
2023/04/29 06:23:41;;;;;;;19.03;12.13;;;9.40;99.90;;;;;;5092275;27;20414;-91
2023/04/29 06:26:08;;;;;;;19.97;11.50;;;8.90;99.90;;;;;;5048441;28;20717;-94
2023/04/29 06:28:36;;;;;;;18.33;11.40;;;10.40;99.90;;;;;;5083928;28;20877;-93
2023/04/29 06:31:03;;;;;;;26.93;11.30;;;9.00;99.90;;;;;;5086028;28;20226;-94
2023/04/29 06:33:33;;;;;;;21.77;11.37;;;9.00;99.90;;;;;;5052747;28;20219;-91
2023/04/29 06:36:00;;;;;;;19.10;11.10;;;9.00;99.90;;;;;;5059914;28;20226;-92
2023/04/29 06:38:27;;;;;;;19.00;11.87;;;9.00;99.90;;;;;;5082106;28;20219;-92
2023/04/29 06:40:54;;;;;;;21.27;11.00;;;9.00;99.90;;;;;;5055364;28;20225;-92
2023/04/29 06:43:21;;;;;;;21.40;10.83;;;9.00;99.90;;;;;;5095550;28;20247;-92
2023/04/29 06:45:48;;;;;;;22.90;11.97;;;9.40;99.90;;;;;;5064081;28;20204;-92
2023/04/29 06:48:15;;;;;;;23.37;11.97;;;9.10;99.90;;;;;;5067871;28;20320;-93
2023/04/29 06:50:51;;;;;;;22.80;11.73;;;9.10;99.90;;;;;;5078308;28;20234;-92
2023/04/29 06:53:18;;;;;;;13.87;9.93;;;9.10;99.90;;;;;;5089197;28;21813;-94
2023/04/29 06:55:45;;;;;;;18.90;10.77;;;9.20;99.90;;;;;;5072317;28;20203;-93
2023/04/29 06:58:12;;;;;;;18.57;10.53;;;9.20;99.90;;;;;;5086573;28;20210;-90
2023/04/29 07:00:39;;;;;;;21.97;10.37;;;9.50;99.90;;;;;;5061463;28;20664;-91
2023/04/29 07:03:07;;;;;;;16.80;10.73;;;9.30;99.90;;;;;;5089929;28;20224;-90
2023/04/29 07:05:34;;;;;;;18.67;10.97;;;9.40;99.90;;;;;;5082548;28;20195;-91
2023/04/29 07:08:02;;;;;;;20.20;10.97;;;9.40;99.90;;;;;;5071754;28;20203;-88
2023/04/29 07:10:29;;;;;;;20.00;11.13;;;9.40;99.90;;;;;;5086554;28;20192;-89
2023/04/29 07:12:59;;;;;;;19.98;9.95;;;9.40;99.90;;;;;;5066856;28;20311;-90
2023/04/29 07:15:26;;;;;;;16.70;10.77;;;10.40;99.90;;;;;;5084801;28;20287;-91
2023/04/29 07:17:53;;;;;;;18.10;10.80;;;9.40;99.90;;;;;;5085128;28;20500;-89
2023/04/29 07:20:20;;;;;;;18.97;10.50;;;9.50;99.90;;;;;;5089323;27;20278;-90
2023/04/29 07:22:47;;;;;;;18.37;10.17;;;9.50;99.90;;;;;;5062239;28;20250;-91
2023/04/29 07:25:15;;;;;;;18.20;11.07;;;9.60;99.90;;;;;;5091115;27;20215;-88
2023/04/29 07:27:42;;;;;;;16.50;10.10;;;9.50;99.90;;;;;;5086273;28;20864;-91
2023/04/29 07:30:09;;;;;;;20.93;11.03;;;9.50;99.90;;;;;;5069386;28;20302;-90
2023/04/29 07:32:36;;;;;;;18.50;9.57;;;9.60;99.90;;;;;;5089442;28;20213;-91
2023/04/29 07:35:03;;;;;;;17.97;9.30;;;10.00;99.90;;;;;;5083645;28;20231;-92
2023/04/29 07:37:31;;;;;;;20.53;9.53;;;9.70;99.90;;;;;;5079396;28;20203;-91
2023/04/29 07:39:58;;;;;;;14.57;9.17;;;9.70;99.90;;;;;;5089132;28;20270;-90
2023/04/29 07:42:29;;;;;;;16.77;9.17;;;9.80;99.90;;;;;;5090138;28;20591;-90
2023/04/29 07:44:56;;;;;;;15.02;8.73;;;9.90;99.90;;;;;;5067907;28;20215;-90
2023/04/29 07:47:23;;;;;;;16.05;9.00;;;9.90;99.90;;;;;;5092038;28;20208;-90
2023/04/29 07:49:51;;;;;;;13.68;8.68;;;10.00;99.90;;;;;;5089058;28;20192;-90
2023/04/29 07:52:18;;;;;;;15.80;8.90;;;10.00;99.90;;;;;;5088889;28;20280;-90
2023/04/29 07:54:45;;;;;;;16.50;9.55;;;10.00;99.90;;;;;;5062314;28;20195;-91
2023/04/29 07:57:12;;;;;;;14.05;8.80;;;10.10;99.90;;;;;;5092801;28;20205;-90
2023/04/29 07:59:41;;;;;;;14.32;8.68;;;10.20;99.90;;;;;;5077438;28;20212;-90
2023/04/29 08:02:08;;;;;;;15.50;8.63;;;10.30;99.90;;;;;;5040426;28;21087;-89
2023/04/29 08:04:35;;;;;;;15.95;8.27;;;11.10;99.90;;;;;;5058147;28;20234;-92
2023/04/29 08:07:04;;;;;;;13.68;8.27;;;10.30;99.90;;;;;;5072276;28;20310;-90
2023/04/29 08:09:31;;;;;;;14.45;8.23;;;10.50;99.90;;;;;;5080825;28;20230;-93
2023/04/29 08:11:58;;;;;;;13.85;7.93;;;10.60;99.90;;;;;;5088349;28;20215;-91
2023/04/29 08:14:25;;;;;;;16.65;7.80;;;10.70;99.90;;;;;;5086215;28;20216;-90
2023/04/29 08:16:54;;;;;;;14.60;7.40;;;10.70;99.90;;;;;;5049970;28;20227;-90
2023/04/29 08:19:21;;;;;;;12.50;7.43;;;10.60;99.90;;;;;;5084028;28;21161;-90
2023/04/29 08:21:48;;;;;;;14.90;7.70;;;10.60;99.90;;;;;;5080126;28;20247;-91
2023/04/29 08:24:16;;;;;;;13.70;7.57;;;10.60;99.90;;;;;;5051538;28;20228;-92
2023/04/29 08:26:44;;;;;;;10.68;7.15;;;10.60;99.90;;;;;;5037049;28;20255;-90
2023/04/29 08:29:11;;;;;;;10.38;6.82;;;10.60;99.90;;;;;;5083454;28;20204;-90
2023/04/29 08:31:38;;;;;;;10.40;6.35;;;10.60;99.90;;;;;;5027679;28;20235;-90
2023/04/29 08:34:07;;;;;;;13.48;6.65;;;10.70;99.90;;;;;;5065249;28;20433;-92
2023/04/29 08:36:35;;;;;;;9.70;5.97;;;10.70;99.90;;;;;;5050936;28;20244;-92
2023/04/29 08:39:02;;;;;;;8.13;5.88;;;11.10;99.90;;;;;;5051276;28;20233;-91
2023/04/29 08:41:31;;;;;;;10.38;7.00;;;11.50;99.90;;;;;;5043913;28;20243;-90
2023/04/29 08:43:59;;;;;;;12.60;6.38;;;10.70;99.90;;;;;;5094800;28;20262;-95
2023/04/29 08:46:28;;;;;;;9.82;6.32;;;10.80;99.90;;;;;;5087316;28;20204;-92
2023/04/29 08:48:56;;;;;;;13.20;6.28;;;10.90;99.90;;;;;;5086347;28;20416;-92
2023/04/29 08:51:25;;;;;;;10.02;6.28;;;10.90;99.90;;;;;;5089238;28;20200;-91
2023/04/29 08:53:52;;;;;;;7.93;6.05;;;11.10;99.90;;;;;;5083540;28;20229;-92
2023/04/29 08:56:20;;;;;;;9.30;5.68;;;11.20;99.90;;;;;;5078896;28;20196;-92
2023/04/29 08:58:53;;;;;;;10.32;6.43;;;10.10;99.90;;;;;;5092857;28;20195;-93
2023/04/29 09:01:21;;;;;;;7.65;6.22;;;11.10;99.90;;;;;;5081658;28;20266;-90
2023/04/29 09:03:55;;;;;;;8.23;5.97;;;11.20;99.90;;;;;;5027108;28;20697;-91
2023/04/29 09:06:25;;;;;;;11.23;6.50;;;11.20;99.90;;;;;;5045450;28;20283;-91
2023/04/29 09:08:52;;;;;;;9.00;6.70;;;11.30;99.90;;;;;;5050376;28;20230;-91
2023/04/29 09:11:20;;;;;;;13.32;6.82;;;11.40;99.90;;;;;;5062691;28;20220;-91
2023/04/29 09:13:47;;;;;;;13.77;6.43;;;11.50;99.90;;;;;;5047905;28;20231;-91
2023/04/29 09:16:16;;;;;;;13.27;6.40;;;11.60;99.90;;;;;;5034114;28;20216;-91
2023/04/29 09:18:45;;;;;;;9.75;6.22;;;11.60;99.90;;;;;;5017838;28;20480;-93
2023/04/29 09:21:17;;;;;;;8.65;5.88;;;11.70;99.90;;;;;;5040985;28;20227;-91
2023/04/29 09:23:47;;;;;;;9.13;6.03;;;11.80;99.90;;;;;;5077256;28;20265;-91
2023/04/29 09:26:15;;;;;;;12.55;6.28;;;11.90;99.90;;;;;;5074236;28;20886;-91
2023/04/29 09:28:43;;;;;;;10.48;6.53;;;12.00;99.90;;;;;;5077309;28;21173;-91
2023/04/29 09:31:11;;;;;;;11.35;6.30;;;12.10;99.90;;;;;;5090095;28;20235;-91
2023/04/29 09:33:51;;;;;;;8.85;6.25;;;12.10;99.90;;;;;;5062432;27;21378;-92
2023/04/29 09:36:37;;;;;;;8.98;6.45;;;12.00;99.90;;;;;;5075753;27;20938;-88
2023/04/29 09:39:10;;;;;;;10.25;7.38;;;12.00;99.90;;;;;;5073128;28;20247;-89
2023/04/29 09:41:42;;;;;;;7.85;6.25;;;12.00;99.90;;;;;;5070492;28;20256;-90
2023/04/29 09:44:10;;;;;;;12.73;7.10;;;13.50;99.90;;;;;;5068098;28;20596;-91
2023/04/29 09:46:38;;;;;;;9.70;6.93;;;13.10;99.90;;;;;;5081960;28;20242;-90
2023/04/29 09:49:22;;;;;;;8.93;6.18;;;12.00;99.90;;;;;;5052819;28;20234;-91
2023/04/29 09:51:54;;;;;;;12.05;6.60;;;12.30;99.90;;;;;;5035966;28;20748;-91
2023/04/29 09:54:23;;;;;;;12.02;6.22;;;12.30;99.90;;;;;;5067584;27;20266;-92
2023/04/29 09:56:51;;;;;;;9.70;6.53;;;12.40;99.90;;;;;;5082015;28;20304;-92
2023/04/29 09:59:18;;;;;;;13.32;6.45;;;13.00;99.90;;;;;;5065634;28;20815;-90
2023/04/29 10:01:48;;;;;;;11.27;5.78;;;12.40;99.90;;;;;;5107960;28;20200;-90
2023/04/29 10:04:17;;;;;;;8.75;5.60;;;12.30;99.90;;;;;;5062288;28;20227;-88
2023/04/29 10:06:45;;;;;;;8.57;6.00;;;12.30;99.90;;;;;;5079914;28;20588;-92
2023/04/29 10:09:16;;;;;;;8.40;5.90;;;12.30;99.90;;;;;;5069000;28;25106;-91
2023/04/29 10:11:46;;;;;;;9.07;5.28;;;12.30;99.90;;;;;;5065814;28;20254;-90
2023/04/29 10:14:17;;;;;;;8.30;5.45;;;12.30;99.90;;;;;;5068190;28;20959;-91
2023/04/29 10:16:49;;;;;;;7.35;5.10;;;12.40;99.90;;;;;;5080713;28;20576;-88
2023/04/29 10:19:24;;;;;;;8.85;5.28;;;12.40;99.90;;;;;;5042236;28;20708;-89
2023/04/29 10:21:55;;;;;;;8.57;5.22;;;12.40;99.90;;;;;;5083637;28;20226;-92
2023/04/29 10:24:23;;;;;;;9.43;5.80;;;12.40;99.90;;;;;;5071783;27;20235;-90
2023/04/29 10:26:53;;;;;;;6.88;5.55;;;12.50;99.90;;;;;;5048520;28;20323;-89
2023/04/29 10:29:22;;;;;;;10.02;5.22;;;13.30;99.90;;;;;;5076458;28;20670;-90
2023/04/29 10:31:50;;;;;;;8.48;5.40;;;12.50;99.90;;;;;;5085614;28;20252;-91
2023/04/29 10:34:18;;;;;;;6.82;5.05;;;12.60;99.90;;;;;;5069957;28;20230;-90
2023/04/29 10:36:46;;;;;;;5.50;4.05;;;12.50;99.90;;;;;;5070515;28;20208;-90
2023/04/29 10:39:26;;;;;;;7.43;5.05;;;12.40;99.90;;;;;;5077696;28;20314;-90
2023/04/29 10:41:56;;;;;;;9.73;4.68;;;12.60;99.90;;;;;;5048531;28;20224;-94
2023/04/29 10:44:23;;;;;;;6.93;4.20;;;12.70;99.90;;;;;;5076441;28;20708;-91
2023/04/29 10:47:10;;;;;;;7.88;4.03;;;12.70;99.90;;;;;;5085420;28;20597;-90
2023/04/29 10:49:39;;;;;;;7.35;3.45;;;12.70;99.90;;;;;;5065126;28;20922;-89
2023/04/29 10:52:06;;;;;;;5.22;3.38;;;12.90;99.90;;;;;;5092536;28;20219;-91
2023/04/29 10:54:33;;;;;;;6.70;3.75;;;13.70;99.90;;;;;;5063738;28;20899;-89
2023/04/29 10:57:03;;;;;;;6.57;3.40;;;12.70;99.90;;;;;;5076239;27;20230;-93
2023/04/29 10:59:46;;;;;;;7.25;3.67;;;12.90;99.90;;;;;;5088728;28;20224;-94
2023/04/29 11:02:14;;;;;;;9.77;3.50;;;12.80;99.90;;;;;;5065680;28;20215;-91
2023/04/29 11:05:16;;;;;;;4.90;3.00;;;12.70;99.90;;;;;;5068808;28;20239;-95
2023/04/29 11:07:46;;;;;;;6.13;3.55;;;12.70;99.90;;;;;;5084959;27;20218;-92
2023/04/29 11:10:13;;;;;;;5.97;3.97;;;12.60;99.90;;;;;;5044301;28;20247;-91
2023/04/29 11:12:40;;;;;;;7.40;4.22;;;12.50;99.90;;;;;;5051377;28;20274;-93
2023/04/29 11:15:10;;;;;;;5.63;3.85;;;12.50;99.90;;;;;;5050738;27;20231;-92
2023/04/29 11:17:39;;;;;;;6.47;3.70;;;12.60;99.90;;;;;;5064579;28;20257;-92
2023/04/29 11:20:13;;;;;;;10.77;3.78;;;12.50;99.90;;;;;;5047926;28;20807;-91
2023/04/29 11:22:41;;;;;;;6.40;3.75;;;12.60;99.90;;;;;;5058759;28;20230;-90
2023/04/29 11:25:10;;;;;;;4.10;3.30;;;12.60;99.90;;;;;;5067987;27;23601;-92
2023/04/29 11:27:40;;;;;;;9.88;3.92;;;12.60;99.90;;;;;;5076728;28;20605;-91
2023/04/29 11:30:08;;;;;;;4.32;3.42;;;12.60;99.90;;;;;;5062109;28;20314;-92
2023/04/29 11:32:38;;;;;;;5.85;3.60;;;12.60;99.90;;;;;;5078617;28;20208;-91
2023/04/29 11:35:16;;;;;;;7.53;4.13;;;12.60;99.90;;;;;;5099808;28;20199;-92
2023/04/29 11:37:45;;;;;;;7.40;4.32;;;12.50;99.90;;;;;;5068067;28;20207;-92
2023/04/29 11:40:13;;;;;;;9.50;4.50;;;12.60;99.90;;;;;;5061896;28;20246;-91
2023/04/29 11:42:46;;;;;;;8.95;4.38;;;12.40;99.90;;;;;;5076754;28;20244;-92
2023/04/29 11:45:14;;;;;;;12.43;4.30;;;12.40;99.90;;;;;;5068485;28;20512;-91
2023/04/29 11:47:44;;;;;;;6.35;3.67;;;12.30;99.90;;;;;;5073125;28;20282;-93
2023/04/29 11:50:11;;;;;;;4.80;3.95;;;12.50;99.90;;;;;;5080318;28;20211;-93
2023/04/29 11:52:40;;;;;;;7.28;4.10;;;12.60;99.90;;;;;;5061295;28;20219;-91
2023/04/29 11:55:09;;;;;;;6.35;4.32;;;12.70;99.90;;;;;;5059715;28;21048;-88
2023/04/29 11:57:36;;;;;;;9.45;3.80;;;12.60;99.90;;;;;;5066118;28;20226;-89
2023/04/29 12:00:04;;;;;;;7.35;4.40;;;12.70;99.90;;;;;;5047804;28;21261;-90
2023/04/29 12:02:33;;;;;;;5.60;3.83;;;12.00;99.90;;;;;;5060114;28;20219;-89
2023/04/29 12:05:00;;;;;;;11.27;6.25;;;12.70;99.90;;;;;;5066616;28;20326;-91
2023/04/29 12:07:27;;;;;;;6.57;4.35;;;12.70;99.90;;;;;;5073598;28;20788;-90
2023/04/29 12:09:57;;;;;;;8.60;4.53;;;13.20;99.90;;;;;;5057113;28;20242;-90
2023/04/29 12:12:24;;;;;;;6.88;4.13;;;12.70;99.90;;;;;;5066285;28;20227;-91
2023/04/29 12:14:51;;;;;;;5.95;3.67;;;12.70;99.90;;;;;;5080324;28;20544;-89
2023/04/29 12:17:19;;;;;;;5.25;3.63;;;12.60;99.90;;;;;;5076070;28;20223;-90
2023/04/29 12:19:47;;;;;;;8.02;3.85;;;12.60;99.90;;;;;;5076080;28;20222;-91
2023/04/29 12:22:14;;;;;;;6.57;3.83;;;12.60;99.90;;;;;;5063014;28;21187;-89
2023/04/29 12:24:41;;;;;;;3.97;3.00;;;12.60;99.90;;;;;;5069062;27;20615;-90
2023/04/29 12:27:11;;;;;;;8.50;3.13;;;12.50;99.90;;;;;;5072966;27;20222;-90
2023/04/29 12:29:40;;;;;;;3.85;2.70;;;12.40;99.90;;;;;;5085749;28;20615;-91
2023/04/29 12:32:07;;;;;;;7.65;3.33;;;12.40;99.90;;;;;;5063808;28;20223;-91
2023/04/29 12:34:34;;;;;;;6.85;2.05;;;12.40;99.90;;;;;;5067250;28;20748;-90
2023/04/29 12:37:02;;;;;;;5.25;2.38;;;12.80;99.90;;;;;;5086781;28;20596;-90
2023/04/29 12:39:30;;;;;;;5.35;2.40;;;12.40;99.90;;;;;;5038555;28;20223;-91
2023/04/29 12:41:59;;;;;;;2.70;2.33;;;12.50;99.90;;;;;;5074909;28;20307;-90
2023/04/29 12:44:34;;;;;;;5.03;2.10;;;12.40;99.90;;;;;;5078412;28;20230;-90
2023/04/29 12:47:08;;;;;;;3.08;1.65;;;13.70;99.90;;;;;;5073835;28;21442;-91